Amanda Park, Washington
Current Conditions -  °F | °C
As of 12:58 PM on Tuesday 25 Nov 2014 (Local Time) from KHQM Reporting Station
Light Rain Light Rain  
Wind Chill: 56°   Ceiling: 900
Heat Index: 56°   Visibility: 3mi
Dew Point: 55°   Wind: 21mph
Humidity: 97%   Direction: 200°SSW
Pressure: 30.23"   Gusts: NA
Location:  47.46°N, 123.89°W
Report Text: KHQM 252058Z AUTO 20018KT 3SM -RA BR BKN009 BKN021 OVC038 13/13 A3023 RMK AO2 RAB56 P0000 T01330128
Loading
Personal Weather Stations






























Interactive Weather Map New forecast layout! Learn more

10-Day Weather Forecast

Advertisements
Track Severe Weather on mobile